Time;durP1;ratioP1;P1;durP2;ratioP2;P2;SDS_P1;SDS_P2;PMS_P1;PMS_P2;Temp;Humidity;BMP_temperature;BMP_pressure;BME280_temperature;BME280_humidity;BME280_pressure;Samples;Min_cycle;Max_cycle;Signal;HPM_P1;HPM_P2
2021/07/03 00:03:54;;;;;;;6.10;5.50;;;20.00;79.00;;;;;;10414374;28;20715;-26
2021/07/03 00:09:17;;;;;;;7.43;5.27;;;19.90;78.80;;;;;;10411950;28;20210;-29
2021/07/03 00:14:39;;;;;;;6.00;5.50;;;19.90;78.90;;;;;;10430127;28;20204;-27
2021/07/03 00:20:04;;;;;;;5.20;4.70;;;19.90;78.70;;;;;;10484110;22;20227;-23
2021/07/03 00:25:26;;;;;;;5.33;4.90;;;19.90;78.70;;;;;;10492900;28;20203;-25
2021/07/03 00:30:48;;;;;;;5.70;5.20;;;19.90;78.50;;;;;;10477799;28;20224;-22
2021/07/03 00:36:12;;;;;;;5.40;4.80;;;19.90;78.70;;;;;;10480530;28;20203;-24
2021/07/03 00:41:34;;;;;;;5.37;4.87;;;19.90;78.60;;;;;;10494263;28;20212;-24
2021/07/03 00:46:56;;;;;;;5.60;5.10;;;19.90;78.60;;;;;;10492886;28;20196;-22
2021/07/03 00:52:19;;;;;;;5.27;4.67;;;19.90;78.60;;;;;;10492602;28;20718;-25
2021/07/03 00:57:43;;;;;;;5.77;4.90;;;19.90;78.40;;;;;;10492247;28;20188;-24
2021/07/03 01:03:05;;;;;;;5.47;4.97;;;19.90;78.50;;;;;;10491697;28;20664;-24
2021/07/03 01:08:29;;;;;;;5.50;5.00;;;19.90;78.60;;;;;;10486844;28;20714;-23
2021/07/03 01:13:51;;;;;;;5.10;4.63;;;19.90;78.40;;;;;;10491284;28;20217;-23
2021/07/03 01:19:13;;;;;;;5.63;5.13;;;19.90;78.50;;;;;;10452535;28;20224;-23
2021/07/03 01:24:37;;;;;;;5.40;4.90;;;19.90;78.30;;;;;;10476621;28;20208;-23
2021/07/03 01:29:59;;;;;;;5.27;4.80;;;19.90;78.50;;;;;;10492868;28;20223;-23
2021/07/03 01:35:25;;;;;;;4.77;4.23;;;19.90;78.40;;;;;;10493555;28;20656;-23
2021/07/03 01:40:49;;;;;;;5.90;4.67;;;19.90;78.30;;;;;;10493061;28;20579;-22
2021/07/03 01:46:11;;;;;;;5.00;4.50;;;19.90;78.40;;;;;;10500237;28;20197;-23
2021/07/03 01:51:34;;;;;;;5.13;4.70;;;19.90;78.30;;;;;;10501283;28;20224;-25
2021/07/03 01:56:58;;;;;;;4.77;4.33;;;19.90;78.20;;;;;;10499679;28;20667;-22
2021/07/03 02:02:20;;;;;;;5.13;4.63;;;19.90;78.20;;;;;;10499287;28;20208;-24
2021/07/03 02:07:42;;;;;;;5.17;4.67;;;19.90;78.10;;;;;;10490010;28;20203;-22
2021/07/03 02:13:06;;;;;;;4.40;4.00;;;19.90;78.10;;;;;;10500366;28;20228;-23
2021/07/03 02:18:28;;;;;;;4.50;4.10;;;19.90;78.10;;;;;;10458318;28;20224;-23
2021/07/03 02:23:50;;;;;;;4.63;4.23;;;19.90;78.00;;;;;;10466567;28;20560;-23
2021/07/03 02:29:13;;;;;;;4.93;4.50;;;19.90;77.90;;;;;;10457807;28;20228;-23
2021/07/03 02:34:35;;;;;;;4.90;4.33;;;19.90;78.00;;;;;;10487047;28;20196;-23
2021/07/03 02:39:58;;;;;;;5.03;4.60;;;19.80;77.70;;;;;;10499410;28;20208;-23
2021/07/03 02:45:23;;;;;;;4.77;4.27;;;19.80;77.80;;;;;;10485076;28;20196;-23
2021/07/03 02:50:46;;;;;;;4.80;4.40;;;19.90;78.40;;;;;;10456219;28;20212;-23
2021/07/03 02:56:08;;;;;;;4.83;4.43;;;19.90;77.80;;;;;;10455698;28;20665;-24
2021/07/03 03:01:31;;;;;;;4.77;4.37;;;19.90;77.60;;;;;;10456592;28;20224;-26
2021/07/03 03:06:53;;;;;;;4.70;4.30;;;19.90;77.70;;;;;;10477996;28;20211;-24
2021/07/03 03:12:15;;;;;;;4.97;4.07;;;19.90;77.70;;;;;;10486294;28;20722;-23
2021/07/03 03:17:39;;;;;;;4.67;4.27;;;19.80;77.50;;;;;;10496547;28;20196;-23
2021/07/03 03:23:01;;;;;;;3.90;3.53;;;19.80;77.50;;;;;;10478386;28;20716;-23
2021/07/03 03:28:23;;;;;;;4.37;3.97;;;19.80;77.70;;;;;;10497854;28;20287;-23
2021/07/03 03:33:46;;;;;;;4.40;4.00;;;19.80;77.40;;;;;;10495722;28;20226;-23
2021/07/03 03:39:08;;;;;;;4.60;4.20;;;19.80;77.30;;;;;;10496302;28;20223;-23
2021/07/03 03:44:31;;;;;;;4.77;4.30;;;19.80;77.30;;;;;;10477040;28;20201;-26
2021/07/03 03:49:54;;;;;;;4.40;4.00;;;19.80;77.30;;;;;;10452594;28;20588;-23
2021/07/03 03:55:16;;;;;;;5.00;4.33;;;19.80;77.20;;;;;;10455226;28;20576;-23
2021/07/03 04:00:38;;;;;;;4.20;3.80;;;19.80;77.40;;;;;;10454936;28;20684;-23
2021/07/03 04:06:01;;;;;;;4.53;4.10;;;19.80;77.20;;;;;;10470571;28;20203;-24
2021/07/03 04:11:25;;;;;;;4.10;3.80;;;19.80;77.30;;;;;;10474110;28;20235;-24
2021/07/03 04:16:47;;;;;;;4.47;4.07;;;19.90;77.40;;;;;;10462918;28;20200;-24
2021/07/03 04:22:10;;;;;;;4.10;3.70;;;19.80;77.30;;;;;;10473699;28;20224;-25
2021/07/03 04:27:33;;;;;;;4.23;3.83;;;19.80;77.20;;;;;;10482294;28;20201;-23
2021/07/03 04:32:56;;;;;;;4.03;3.73;;;19.80;77.30;;;;;;10452638;28;20592;-24
2021/07/03 04:38:20;;;;;;;4.37;3.97;;;19.80;77.20;;;;;;10469926;28;20576;-23
2021/07/03 04:43:42;;;;;;;4.80;4.30;;;19.80;77.10;;;;;;10460919;28;20338;-24
2021/07/03 04:49:04;;;;;;;4.20;3.83;;;19.80;77.40;;;;;;10452438;28;20224;-22
2021/07/03 04:54:28;;;;;;;4.47;4.10;;;19.80;77.30;;;;;;10453386;28;20216;-23
2021/07/03 04:59:50;;;;;;;4.37;3.97;;;19.80;77.30;;;;;;10453301;28;20706;-22
2021/07/03 05:05:12;;;;;;;3.83;3.53;;;19.80;77.40;;;;;;10460265;28;20689;-24
2021/07/03 05:10:35;;;;;;;4.33;3.90;;;19.90;77.40;;;;;;10451277;28;20220;-24
2021/07/03 05:15:57;;;;;;;4.20;3.80;;;19.80;77.20;;;;;;10452243;28;20208;-23
2021/07/03 05:21:19;;;;;;;3.73;3.43;;;19.80;77.30;;;;;;10475896;28;20227;-22
2021/07/03 05:26:43;;;;;;;3.70;3.40;;;19.80;77.40;;;;;;10492262;28;20203;-23
2021/07/03 05:32:06;;;;;;;4.23;3.83;;;19.80;77.40;;;;;;10486586;28;20220;-23
2021/07/03 05:37:28;;;;;;;4.23;3.83;;;19.80;77.30;;;;;;10486991;28;20196;-25
2021/07/03 05:42:51;;;;;;;4.43;3.67;;;19.80;77.40;;;;;;10463756;28;20193;-25
2021/07/03 05:48:15;;;;;;;4.23;3.83;;;19.80;77.40;;;;;;10445063;28;20217;-24
2021/07/03 05:53:37;;;;;;;4.37;3.97;;;19.80;77.40;;;;;;10455556;28;20254;-23
2021/07/03 05:59:02;;;;;;;3.80;3.50;;;19.80;77.50;;;;;;10487549;28;20240;-23
2021/07/03 06:04:24;;;;;;;3.87;3.57;;;19.80;77.30;;;;;;10482913;28;20193;-24
2021/07/03 06:09:46;;;;;;;3.67;3.37;;;19.80;77.30;;;;;;10483396;28;20626;-24
2021/07/03 06:15:12;;;;;;;3.90;3.60;;;19.80;77.40;;;;;;10467051;28;20201;-23
2021/07/03 06:20:34;;;;;;;4.23;3.83;;;19.80;77.60;;;;;;10451424;28;20218;-22
2021/07/03 06:25:59;;;;;;;11.27;8.50;;;19.80;77.60;;;;;;10543533;22;20227;-27
2021/07/03 06:31:22;;;;;;;10.20;8.23;;;19.80;77.70;;;;;;10564301;28;20222;-30
2021/07/03 06:36:44;;;;;;;11.57;7.40;;;19.70;77.20;;;;;;10546907;28;20216;-27
2021/07/03 06:42:06;;;;;;;8.00;6.43;;;19.70;77.40;;;;;;10537493;28;20189;-27
2021/07/03 06:47:30;;;;;;;6.87;5.27;;;19.80;77.20;;;;;;10525543;28;20570;-27
2021/07/03 06:52:52;;;;;;;8.80;5.07;;;19.80;78.00;;;;;;10529265;28;20282;-27
2021/07/03 06:58:14;;;;;;;8.37;4.83;;;19.90;78.40;;;;;;10539124;28;20196;-27
2021/07/03 07:03:37;;;;;;;6.40;4.23;;;19.90;78.30;;;;;;10505211;28;20212;-28
2021/07/03 07:09:00;;;;;;;6.60;4.87;;;19.90;78.40;;;;;;10505181;28;20207;-28
2021/07/03 07:14:22;;;;;;;12.80;4.77;;;19.90;78.70;;;;;;10497425;28;20591;-29
2021/07/03 07:19:45;;;;;;;14.03;4.73;;;19.90;78.00;;;;;;10498080;28;20974;-29
2021/07/03 07:25:08;;;;;;;32.17;5.77;;;19.90;78.10;;;;;;10538199;28;20227;-27
2021/07/03 07:30:30;;;;;;;137.33;13.73;;;19.90;78.50;;;;;;10536594;28;20208;-28
2021/07/03 07:35:53;;;;;;;171.97;17.93;;;19.90;78.20;;;;;;10508011;28;20217;-29
2021/07/03 07:41:16;;;;;;;142.60;16.37;;;19.90;78.10;;;;;;10506670;28;20618;-31
2021/07/03 07:46:38;;;;;;;110.63;13.53;;;19.90;78.20;;;;;;10496579;28;20219;-27
2021/07/03 07:52:02;;;;;;;98.17;12.70;;;19.90;78.00;;;;;;10494610;28;20220;-28
2021/07/03 07:57:24;;;;;;;76.67;11.83;;;19.90;78.00;;;;;;10496163;28;20196;-27
2021/07/03 08:02:46;;;;;;;82.17;11.33;;;19.90;78.10;;;;;;10494525;28;20721;-28
2021/07/03 08:08:10;;;;;;;50.77;9.20;;;19.90;78.10;;;;;;10495988;28;20241;-27
2021/07/03 08:13:32;;;;;;;61.20;9.63;;;19.90;78.20;;;;;;10495180;28;20219;-27
2021/07/03 08:18:54;;;;;;;61.27;10.50;;;19.90;78.70;;;;;;10494645;28;20204;-28
2021/07/03 08:24:18;;;;;;;45.43;8.70;;;19.90;78.10;;;;;;10506850;28;20247;-28
2021/07/03 08:29:40;;;;;;;41.43;8.10;;;19.90;78.30;;;;;;10494598;28;20196;-28
2021/07/03 08:35:02;;;;;;;41.73;9.33;;;19.90;78.20;;;;;;10494608;28;20219;-27
2021/07/03 08:40:26;;;;;;;36.33;7.63;;;19.90;78.10;;;;;;10493248;28;20200;-28
2021/07/03 08:45:48;;;;;;;39.17;7.40;;;19.90;78.10;;;;;;10502825;28;20717;-29
2021/07/03 08:51:10;;;;;;;36.23;7.73;;;19.90;77.90;;;;;;10492187;28;20209;-30
2021/07/03 08:56:34;;;;;;;26.80;6.50;;;19.90;77.90;;;;;;10494025;28;20591;-30
2021/07/03 09:01:59;;;;;;;28.40;6.50;;;19.90;78.10;;;;;;10494903;28;20204;-28
2021/07/03 09:07:22;;;;;;;27.17;6.93;;;19.90;77.90;;;;;;10519269;28;20195;-29
2021/07/03 09:12:49;;;;;;;30.27;6.47;;;19.90;77.90;;;;;;10527779;28;20235;-28
2021/07/03 09:18:13;;;;;;;27.47;6.97;;;19.90;77.80;;;;;;10492409;28;20318;-27
2021/07/03 09:23:37;;;;;;;20.83;5.83;;;19.90;77.90;;;;;;10525918;28;20219;-29
2021/07/03 09:29:11;;;;;;;24.40;6.43;;;19.90;77.90;;;;;;10534518;28;20707;-28
2021/07/03 09:34:33;;;;;;;20.03;5.13;;;19.90;77.80;;;;;;10533950;28;20211;-30
2021/07/03 09:40:04;;;;;;;16.87;5.40;;;19.90;77.90;;;;;;10534612;28;20199;-29
2021/07/03 09:45:28;;;;;;;18.23;5.40;;;19.90;78.00;;;;;;10498206;28;20220;-28
2021/07/03 09:50:50;;;;;;;18.53;5.10;;;19.90;78.00;;;;;;10491581;28;20199;-29
2021/07/03 09:56:12;;;;;;;19.30;5.53;;;19.90;78.00;;;;;;10492364;28;20212;-31
2021/07/03 10:01:39;;;;;;;12.90;4.73;;;19.90;78.10;;;;;;10495887;28;20197;-29
2021/07/03 10:07:06;;;;;;;17.30;5.03;;;19.90;78.20;;;;;;10532502;28;20775;-28
2021/07/03 10:12:31;;;;;;;17.97;4.90;;;19.90;78.20;;;;;;10524899;28;20216;-27
2021/07/03 10:17:54;;;;;;;18.43;4.77;;;19.90;78.20;;;;;;10499178;28;20200;-28
2021/07/03 10:23:16;;;;;;;16.03;4.80;;;19.80;78.30;;;;;;10530161;28;20251;-27
2021/07/03 10:28:41;;;;;;;11.50;3.97;;;19.80;78.40;;;;;;10515745;28;20193;-28
2021/07/03 10:34:05;;;;;;;12.50;4.63;;;19.90;78.40;;;;;;10532231;28;20216;-28
2021/07/03 10:39:30;;;;;;;16.60;4.57;;;19.80;78.30;;;;;;10539642;28;20666;-28
2021/07/03 10:44:52;;;;;;;7.87;4.40;;;19.80;78.30;;;;;;10525587;28;20588;-27
2021/07/03 10:50:26;;;;;;;7.43;3.77;;;19.80;78.30;;;;;;10498496;28;20215;-30
2021/07/03 10:55:49;;;;;;;10.53;3.90;;;19.80;78.30;;;;;;10517470;28;20224;-28
2021/07/03 11:01:13;;;;;;;8.40;3.93;;;19.80;78.40;;;;;;10538588;28;20260;-29
2021/07/03 11:06:43;;;;;;;7.53;3.90;;;19.80;78.40;;;;;;10540167;28;20702;-29
2021/07/03 11:12:14;;;;;;;12.50;4.37;;;19.80;78.40;;;;;;10537560;28;20223;-30
2021/07/03 11:17:36;;;;;;;8.70;4.03;;;19.80;78.40;;;;;;10538943;28;20195;-28
2021/07/03 11:23:01;;;;;;;12.80;4.13;;;19.90;78.90;;;;;;10506565;28;20216;-29
2021/07/03 11:28:24;;;;;;;6.03;3.63;;;19.90;78.80;;;;;;10495646;28;20564;-30
2021/07/03 11:33:46;;;;;;;6.47;3.20;;;19.90;78.30;;;;;;10495785;28;20220;-31
2021/07/03 11:39:10;;;;;;;7.50;3.33;;;19.90;78.20;;;;;;10495123;28;20218;-30
2021/07/03 11:44:32;;;;;;;3.97;2.80;;;19.90;78.10;;;;;;10523245;28;20223;-29
2021/07/03 11:49:54;;;;;;;4.27;2.80;;;19.90;78.10;;;;;;10536648;28;20203;-28
2021/07/03 11:55:21;;;;;;;5.40;2.93;;;19.90;77.80;;;;;;10502368;28;20216;-30
2021/07/03 12:00:47;;;;;;;3.87;2.70;;;19.90;77.60;;;;;;10494759;28;20691;-28
2021/07/03 12:06:09;;;;;;;4.60;2.77;;;19.90;77.50;;;;;;10494853;28;20216;-29
2021/07/03 12:11:35;;;;;;;6.60;2.60;;;19.90;77.70;;;;;;10494432;28;20220;-29
2021/07/03 12:16:58;;;;;;;3.23;2.80;;;19.90;77.50;;;;;;10507832;28;20287;-28
2021/07/03 12:22:21;;;;;;;3.67;2.47;;;19.80;77.20;;;;;;10518600;28;20192;-29
2021/07/03 12:27:52;;;;;;;5.43;2.40;;;19.80;77.40;;;;;;10555952;22;20226;-24
2021/07/03 12:33:15;;;;;;;3.13;2.33;;;19.80;77.10;;;;;;10529122;28;20254;-23
2021/07/03 12:38:37;;;;;;;2.40;2.20;;;19.80;77.30;;;;;;10526995;28;20548;-25
2021/07/03 12:44:01;;;;;;;4.10;2.13;;;19.80;77.00;;;;;;10520462;28;20234;-25
2021/07/03 12:49:32;;;;;;;2.67;2.30;;;19.80;77.10;;;;;;10499510;28;20622;-24
2021/07/03 12:54:56;;;;;;;3.63;1.90;;;19.80;77.00;;;;;;10494224;28;20216;-25
2021/07/03 13:00:22;;;;;;;3.27;2.10;;;19.80;76.80;;;;;;10452780;28;20684;-25
2021/07/03 13:05:47;;;;;;;3.47;2.20;;;19.80;76.90;;;;;;10452329;28;20997;-24
2021/07/03 13:11:09;;;;;;;2.93;2.40;;;19.80;77.00;;;;;;10451906;28;20702;-24
2021/07/03 13:16:33;;;;;;;2.83;2.27;;;19.80;76.70;;;;;;10452091;28;20723;-26
2021/07/03 13:21:55;;;;;;;1.97;1.87;;;19.80;76.80;;;;;;10502049;28;20545;-24
2021/07/03 13:27:17;;;;;;;2.50;2.00;;;19.80;77.40;;;;;;10493728;28;20231;-24
2021/07/03 13:32:40;;;;;;;2.37;2.07;;;19.80;76.60;;;;;;10493154;28;20216;-24
2021/07/03 13:38:02;;;;;;;2.10;1.80;;;19.80;76.80;;;;;;10497569;28;20219;-24
2021/07/03 13:43:24;;;;;;;2.83;1.80;;;19.80;76.70;;;;;;10500805;28;20203;-24
2021/07/03 13:48:48;;;;;;;2.33;1.97;;;19.80;76.40;;;;;;10499641;28;20188;-24
2021/07/03 13:54:10;;;;;;;1.93;1.73;;;19.80;76.40;;;;;;10500862;28;20738;-26
2021/07/03 13:59:32;;;;;;;2.50;1.80;;;19.80;76.80;;;;;;10500213;28;20613;-26
2021/07/03 14:04:55;;;;;;;2.70;1.87;;;19.80;76.40;;;;;;10499832;28;20623;-24
2021/07/03 14:10:18;;;;;;;1.87;1.77;;;19.80;76.20;;;;;;10499776;28;20571;-24
2021/07/03 14:15:40;;;;;;;3.13;2.13;;;19.80;76.40;;;;;;10495935;28;20225;-24
2021/07/03 14:21:04;;;;;;;1.97;1.80;;;19.80;76.50;;;;;;10485589;28;20192;-26
2021/07/03 14:26:31;;;;;;;3.60;1.93;;;19.80;76.50;;;;;;10494268;28;20236;-24
2021/07/03 14:31:53;;;;;;;2.47;2.03;;;19.80;76.30;;;;;;10483377;28;20586;-24
2021/07/03 14:37:16;;;;;;;2.30;2.10;;;19.80;76.30;;;;;;10498439;28;20219;-24
2021/07/03 14:42:39;;;;;;;2.10;1.90;;;19.80;76.20;;;;;;10498988;28;20193;-23
2021/07/03 14:48:01;;;;;;;2.10;1.77;;;19.80;76.40;;;;;;10494436;28;20234;-24
2021/07/03 14:53:24;;;;;;;1.93;1.73;;;19.80;76.30;;;;;;10498932;28;20212;-24
2021/07/03 14:58:46;;;;;;;1.97;1.87;;;19.90;76.30;;;;;;10499174;28;20223;-24
2021/07/03 15:04:08;;;;;;;2.63;1.83;;;19.80;76.40;;;;;;10499377;28;20212;-25
2021/07/03 15:09:32;;;;;;;1.73;1.63;;;19.80;76.30;;;;;;10499022;28;20204;-27
2021/07/03 15:14:54;;;;;;;1.80;1.70;;;19.80;76.40;;;;;;10496616;28;20219;-25
2021/07/03 15:20:16;;;;;;;2.17;1.97;;;19.80;76.30;;;;;;10510744;28;20685;-24
2021/07/03 15:25:40;;;;;;;2.33;1.70;;;19.80;76.40;;;;;;10456673;28;20219;-23
2021/07/03 15:31:02;;;;;;;2.27;1.60;;;19.80;76.50;;;;;;10455180;28;20299;-24
2021/07/03 15:36:25;;;;;;;2.20;2.00;;;19.80;76.40;;;;;;10455118;28;20231;-25
2021/07/03 15:41:49;;;;;;;2.33;1.80;;;19.80;76.30;;;;;;10456538;28;20599;-24
2021/07/03 15:47:11;;;;;;;2.30;2.10;;;19.80;76.40;;;;;;10455838;28;20221;-24
2021/07/03 15:52:34;;;;;;;2.07;1.90;;;19.80;76.40;;;;;;10454913;28;20220;-25
2021/07/03 15:57:57;;;;;;;2.13;1.50;;;19.80;76.50;;;;;;10453688;28;20232;-26
2021/07/03 16:03:19;;;;;;;1.73;1.53;;;19.80;76.40;;;;;;10453781;28;20546;-24
2021/07/03 16:08:41;;;;;;;1.90;1.73;;;19.80;76.40;;;;;;10454327;28;20647;-24
2021/07/03 16:14:05;;;;;;;2.37;1.70;;;19.80;76.60;;;;;;10455211;28;20611;-24
2021/07/03 16:19:27;;;;;;;1.80;1.63;;;19.80;76.50;;;;;;10473428;28;20199;-24
2021/07/03 16:24:49;;;;;;;2.17;1.77;;;19.80;76.40;;;;;;10512169;28;20220;-24
2021/07/03 16:30:13;;;;;;;2.13;1.90;;;19.80;76.60;;;;;;10489346;28;20196;-24
2021/07/03 16:35:36;;;;;;;1.90;1.80;;;19.80;76.40;;;;;;10493472;28;20591;-23
2021/07/03 16:40:59;;;;;;;2.20;1.80;;;19.80;76.50;;;;;;10493920;28;20200;-24
2021/07/03 16:46:22;;;;;;;2.23;2.03;;;19.80;76.50;;;;;;10523503;28;20214;-25
2021/07/03 16:51:44;;;;;;;2.20;2.00;;;19.80;76.60;;;;;;10536599;28;20192;-24
2021/07/03 16:57:07;;;;;;;2.40;1.80;;;19.80;76.60;;;;;;10535852;28;20694;-24
2021/07/03 17:02:31;;;;;;;2.00;1.77;;;19.80;76.60;;;;;;10534378;28;20205;-23
2021/07/03 17:07:53;;;;;;;2.00;1.90;;;19.80;76.70;;;;;;10534984;28;20717;-24
2021/07/03 17:13:15;;;;;;;1.90;1.70;;;19.80;76.60;;;;;;10516220;28;20591;-24
2021/07/03 17:18:38;;;;;;;1.93;1.80;;;19.80;76.70;;;;;;10496667;28;20199;-25
2021/07/03 17:24:00;;;;;;;2.30;2.03;;;19.80;76.80;;;;;;10499195;28;20228;-21
2021/07/03 17:29:22;;;;;;;1.90;1.80;;;19.80;76.70;;;;;;10496067;28;20199;-24
2021/07/03 17:34:46;;;;;;;1.73;1.63;;;19.80;76.70;;;;;;10483024;28;20213;-23
2021/07/03 17:40:09;;;;;;;2.50;1.67;;;19.80;76.60;;;;;;10445113;28;20438;-23
2021/07/03 17:45:32;;;;;;;2.40;1.80;;;19.80;76.70;;;;;;10475441;28;20220;-24
2021/07/03 17:50:55;;;;;;;2.70;2.07;;;19.90;76.90;;;;;;10486288;28;20200;-25
2021/07/03 17:56:18;;;;;;;2.80;1.93;;;19.80;76.70;;;;;;10486676;28;20228;-25
2021/07/03 18:01:40;;;;;;;3.50;2.13;;;19.80;76.60;;;;;;10487187;28;20230;-26
2021/07/03 18:07:04;;;;;;;1.90;1.80;;;19.80;76.70;;;;;;10486545;28;20220;-24
2021/07/03 18:12:26;;;;;;;2.03;1.67;;;19.90;76.80;;;;;;10485419;28;20208;-24
2021/07/03 18:17:48;;;;;;;2.57;1.80;;;19.90;76.90;;;;;;10446365;28;20584;-25
2021/07/03 18:23:12;;;;;;;2.67;2.30;;;19.80;76.90;;;;;;10488835;28;20189;-23
2021/07/03 18:28:34;;;;;;;2.57;2.27;;;19.90;77.00;;;;;;10508578;22;20235;-32
2021/07/03 18:33:56;;;;;;;2.33;2.13;;;19.90;77.00;;;;;;10488048;28;20239;-33
2021/07/03 18:39:19;;;;;;;2.60;1.90;;;19.80;77.10;;;;;;10446992;28;20193;-35
2021/07/03 18:44:41;;;;;;;2.23;2.03;;;19.80;77.30;;;;;;10431030;28;20210;-31
2021/07/03 18:50:04;;;;;;;2.77;1.90;;;19.80;77.30;;;;;;10425763;28;20204;-29
2021/07/03 18:55:28;;;;;;;2.77;1.87;;;19.80;77.40;;;;;;10450244;28;20711;-30
2021/07/03 19:00:50;;;;;;;2.67;1.90;;;19.80;77.40;;;;;;10452559;28;20189;-31
2021/07/03 19:06:12;;;;;;;1.93;1.83;;;19.80;77.40;;;;;;10449644;28;20287;-32
2021/07/03 19:11:36;;;;;;;2.97;2.27;;;19.80;77.40;;;;;;10448716;28;20205;-34
2021/07/03 19:16:58;;;;;;;2.33;2.13;;;19.80;77.40;;;;;;10442123;28;20873;-31
2021/07/03 19:22:20;;;;;;;2.77;2.40;;;19.80;77.60;;;;;;10430161;28;20200;-36
2021/07/03 19:27:45;;;;;;;2.30;2.10;;;19.80;77.60;;;;;;10428362;28;20244;-32
2021/07/03 19:33:08;;;;;;;2.20;1.87;;;19.90;77.70;;;;;;10427496;28;20721;-32
2021/07/03 19:38:30;;;;;;;1.90;1.70;;;19.90;77.90;;;;;;10429273;28;20232;-33
2021/07/03 19:43:54;;;;;;;2.27;2.03;;;19.80;77.70;;;;;;10420544;28;20327;-30
2021/07/03 19:49:16;;;;;;;2.33;2.13;;;19.80;78.30;;;;;;10430301;28;20226;-31
2021/07/03 19:54:41;;;;;;;1.90;1.77;;;19.90;77.80;;;;;;10430686;28;20213;-29
2021/07/03 20:00:07;;;;;;;2.37;2.17;;;19.80;77.80;;;;;;10429314;28;20192;-32
2021/07/03 20:05:29;;;;;;;2.00;1.77;;;19.80;77.90;;;;;;10432007;28;20216;-30
2021/07/03 20:10:51;;;;;;;1.97;1.87;;;19.80;77.90;;;;;;10417415;28;20247;-33
2021/07/03 20:16:15;;;;;;;2.03;1.93;;;19.80;78.00;;;;;;10412625;28;20740;-28
2021/07/03 20:21:37;;;;;;;1.80;1.70;;;19.80;78.00;;;;;;10385661;28;20202;-31
2021/07/03 20:26:59;;;;;;;2.27;1.80;;;19.80;78.10;;;;;;10416732;28;20725;-31
2021/07/03 20:32:23;;;;;;;1.80;1.70;;;19.90;78.20;;;;;;10411574;28;20577;-32
2021/07/03 20:37:45;;;;;;;2.13;1.90;;;19.80;78.10;;;;;;10411351;28;20570;-31
2021/07/03 20:43:07;;;;;;;1.97;1.73;;;19.90;78.30;;;;;;10411201;28;20766;-33
2021/07/03 20:48:31;;;;;;;1.90;1.80;;;19.80;78.10;;;;;;10417628;28;20224;-30
2021/07/03 20:53:54;;;;;;;2.10;1.90;;;19.80;78.20;;;;;;10429073;28;20231;-31
2021/07/03 20:59:16;;;;;;;2.10;1.93;;;19.80;78.20;;;;;;10434461;28;20198;-30
2021/07/03 21:04:40;;;;;;;2.00;1.90;;;19.90;78.30;;;;;;10412643;28;20209;-32
2021/07/03 21:10:02;;;;;;;2.20;1.93;;;19.80;78.30;;;;;;10415043;28;20213;-30
2021/07/03 21:15:24;;;;;;;2.20;2.00;;;19.90;78.30;;;;;;10444582;28;20224;-34
2021/07/03 21:20:47;;;;;;;1.83;1.73;;;19.80;78.30;;;;;;10430023;28;20189;-34
2021/07/03 21:26:10;;;;;;;2.00;1.90;;;19.80;78.30;;;;;;10410665;28;20217;-31
2021/07/03 21:31:32;;;;;;;2.07;1.73;;;19.80;78.30;;;;;;10418420;28;20204;-30
2021/07/03 21:36:55;;;;;;;1.97;1.80;;;19.80;78.40;;;;;;10451514;28;20232;-32
2021/07/03 21:42:18;;;;;;;2.13;1.97;;;19.80;78.40;;;;;;10452185;28;20557;-30
2021/07/03 21:47:40;;;;;;;2.47;2.00;;;19.80;78.40;;;;;;10451695;28;20212;-34
2021/07/03 21:53:03;;;;;;;4.63;2.07;;;19.80;78.40;;;;;;10451425;28;20193;-33
2021/07/03 21:58:25;;;;;;;1.93;1.83;;;19.80;78.40;;;;;;10454245;28;20223;-31
2021/07/03 22:03:48;;;;;;;2.23;2.03;;;19.80;78.40;;;;;;10433330;28;20201;-37
2021/07/03 22:09:11;;;;;;;1.90;1.80;;;19.80;78.40;;;;;;10459057;28;20201;-32
2021/07/03 22:14:33;;;;;;;2.43;2.23;;;19.80;78.50;;;;;;10440317;28;20605;-34
2021/07/03 22:19:55;;;;;;;1.90;1.70;;;19.80;78.50;;;;;;10421059;28;20200;-33
2021/07/03 22:25:19;;;;;;;2.00;1.90;;;19.80;78.50;;;;;;10456972;28;20217;-30
2021/07/03 22:30:41;;;;;;;2.37;1.70;;;19.80;78.50;;;;;;10424620;28;20201;-31
2021/07/03 22:36:04;;;;;;;2.47;1.80;;;19.90;78.70;;;;;;10417506;28;20732;-30
2021/07/03 22:41:27;;;;;;;1.63;1.53;;;19.80;78.50;;;;;;10417134;28;20197;-32
2021/07/03 22:46:49;;;;;;;2.10;2.00;;;19.90;78.60;;;;;;10416066;28;20225;-31
2021/07/03 22:52:11;;;;;;;2.10;2.00;;;19.80;78.50;;;;;;10428735;28;20197;-36
2021/07/03 22:57:35;;;;;;;2.20;2.00;;;19.80;78.60;;;;;;10455553;28;20224;-31
2021/07/03 23:02:57;;;;;;;2.10;1.97;;;19.90;78.80;;;;;;10434156;28;20205;-30
2021/07/03 23:08:19;;;;;;;2.20;2.00;;;19.80;78.70;;;;;;10414424;28;20217;-31
2021/07/03 23:13:42;;;;;;;2.03;1.93;;;19.90;78.70;;;;;;10415138;28;20217;-33
2021/07/03 23:19:04;;;;;;;2.73;2.00;;;19.80;78.50;;;;;;10430778;28;20277;-33
2021/07/03 23:24:26;;;;;;;2.23;2.03;;;19.90;78.70;;;;;;10429238;28;20218;-32
2021/07/03 23:29:50;;;;;;;2.40;2.20;;;19.90;78.80;;;;;;10454855;28;20193;-30
2021/07/03 23:35:13;;;;;;;2.50;2.30;;;19.80;78.60;;;;;;10454676;28;20228;-33
2021/07/03 23:40:35;;;;;;;2.40;2.20;;;19.80;78.60;;;;;;10455283;28;20212;-30
2021/07/03 23:45:59;;;;;;;2.20;2.00;;;19.90;78.70;;;;;;10454189;28;20205;-30
2021/07/03 23:51:21;;;;;;;1.90;1.80;;;19.90;78.50;;;;;;10453519;28;20208;-33
2021/07/03 23:56:43;;;;;;;2.43;2.23;;;19.90;78.70;;;;;;10453904;28;20217;-30
